EIKN

Ireland West Knock Airport

Charleston, Ireland
TAF EIKN 180500Z 1806/1906 24005KT 9999 FEW030 TEMPO 1806/1809 3000 BR PROB30 TEMPO 1806/1808 0400 FG BECMG 1808/1811 17010KT BECMG 1903/1906 4000 -RA BKN006
Issued Valid From Valid To
Oct-18 @ 05:00 UTC
(6 hours ago)
Oct-18 @ 06:00 UTC
(5 hours ago)
Oct-19 @ 06:00 UTC
(in 19 hours)
Expired Click to View Oct-18 @ 06:00 to Oct-18 @ 08:00
TAF EIKN 180500Z 1806/1906 24005KT 9999 FEW030
Wind Visibility Clouds
240° at 5 knots 10,000+ meters
  • Few at 3,000' AGL
Expired Click to View Oct-18 @ 06:00 to Oct-18 @ 08:00
PROB30 TEMPO 1806/1808 0400 FG
Visibility Conditions
402 meters
  • Fog
Expired Click to View Oct-18 @ 06:00 to Oct-18 @ 09:00
TEMPO 1806/1809 3000 BR
Visibility Conditions
2,993 meters
  • Mist
Becoming Oct-18 @ 08:00 to Oct-19 @ 03:00
BECMG 1808/1811 17010KT
Wind Visibility Clouds
170° at 10 knots 10,000+ meters
  • Few at 3,000' AGL
Becoming Oct-19 @ 03:00 to Oct-19 @ 06:00
BECMG 1903/1906 4000 -RA BKN006
Wind Visibility Clouds Conditions
170° at 10 knots 4,007 meters
  • Broken at 600' AGL
  • Light Rain
TAF EIKN 180500Z 1806/1906 24005KT 9999 FEW030 TEMPO 1806/1809 3000 BR PROB30 TEMPO 1806/1808 0400 FG BECMG 1808/1811 17010KT BECMG 1903/1906 4000 -RA BKN006
Issued Oct-18 @ 05:00 UTC
(6 hours ago)
Valid From Oct-18 @ 06:00 UTC
(5 hours ago)
Valid To Oct-19 @ 06:00 UTC
(in 19 hours)
Oct-18 @ 06:00 - Oct-18 @ 08:00
Wind Visibility
240° at 5 knots 10,000+ meters
Clouds
  • Few at 3,000' AGL
Oct-18 @ 06:00 - Oct-18 @ 08:00
Conditions
  • Fog
Oct-18 @ 06:00 - Oct-18 @ 09:00
Conditions
  • Mist
Becoming Oct-18 @ 08:00 - Oct-19 @ 03:00
Wind Visibility
170° at 10 knots 10,000+ meters
Clouds
  • Few at 3,000' AGL
Becoming Oct-19 @ 03:00 - Oct-19 @ 06:00
Wind Visibility
170° at 10 knots 4,007 meters
Clouds
  • Broken at 600' AGL
Conditions
  • Light Rain